Time;durP1;ratioP1;P1;durP2;ratioP2;P2;SDS_P1;SDS_P2;PMS_P1;PMS_P2;Temp;Humidity;BMP_temperature;BMP_pressure;BME280_temperature;BME280_humidity;BME280_pressure;Samples;Min_cycle;Max_cycle;Signal;HPM_P1;HPM_P2
2022/12/11 00:00:19;;;;;;;16.70;6.13;;;-0.80;99.90;;;;;;5094495;28;20044;-87
2022/12/11 00:02:45;;;;;;;12.98;5.63;;;-0.70;99.90;;;;;;5094320;28;20055;-86
2022/12/11 00:05:10;;;;;;;13.77;6.15;;;-0.70;99.90;;;;;;5094505;28;20056;-86
2022/12/11 00:07:36;;;;;;;20.92;5.50;;;-0.70;99.90;;;;;;5094290;28;20514;-85
2022/12/11 00:10:02;;;;;;;13.82;5.50;;;-0.70;99.90;;;;;;5094501;28;20032;-86
2022/12/11 00:12:31;;;;;;;14.32;6.32;;;-0.70;99.90;;;;;;5094264;28;20036;-85
2022/12/11 00:14:57;;;;;;;14.98;5.95;;;-0.70;99.90;;;;;;5094281;28;20468;-86
2022/12/11 00:17:22;;;;;;;15.63;5.70;;;-0.70;99.90;;;;;;5094600;28;20046;-85
2022/12/11 00:19:48;;;;;;;15.68;6.60;;;-0.60;99.90;;;;;;5094306;28;20047;-86
2022/12/11 00:22:13;;;;;;;15.40;7.05;;;-0.60;99.90;;;;;;5094461;28;20491;-86
2022/12/11 00:24:39;;;;;;;16.38;5.25;;;-0.60;99.90;;;;;;5094388;28;20036;-86
2022/12/11 00:27:05;;;;;;;17.02;5.50;;;-0.60;99.90;;;;;;5094008;28;20039;-86
2022/12/11 00:29:30;;;;;;;17.50;6.10;;;-0.60;99.90;;;;;;5093925;28;20396;-86
2022/12/11 00:31:56;;;;;;;15.23;5.90;;;-0.50;99.90;;;;;;5093968;28;20047;-86
2022/12/11 00:34:21;;;;;;;16.88;6.35;;;-0.50;99.90;;;;;;5094352;28;20064;-86
2022/12/11 00:36:47;;;;;;;14.05;6.13;;;-0.50;99.90;;;;;;5093997;28;20077;-86
2022/12/11 00:39:13;;;;;;;15.52;5.38;;;-0.50;99.90;;;;;;5093745;28;20093;-86
2022/12/11 00:41:38;;;;;;;15.90;5.07;;;-0.50;99.90;;;;;;5093969;28;20036;-86
2022/12/11 00:44:04;;;;;;;16.05;6.47;;;-0.50;99.90;;;;;;5093724;28;20078;-86
2022/12/11 00:46:30;;;;;;;18.83;6.20;;;-0.50;99.90;;;;;;5093854;28;20039;-86
2022/12/11 00:48:55;;;;;;;15.82;6.60;;;-0.40;99.90;;;;;;5093757;28;20166;-86
2022/12/11 00:51:21;;;;;;;14.60;6.57;;;-0.50;99.90;;;;;;5093562;28;20039;-85
2022/12/11 00:53:47;;;;;;;11.15;5.53;;;-0.40;99.90;;;;;;5093805;28;20121;-87
2022/12/11 00:56:16;;;;;;;10.45;5.35;;;-0.40;99.90;;;;;;5093851;28;20036;-86
2022/12/11 00:58:41;;;;;;;12.75;6.13;;;-0.50;99.90;;;;;;5093330;28;20047;-84
2022/12/11 01:01:10;;;;;;;12.50;5.95;;;-0.50;99.90;;;;;;5093688;28;20044;-86
2022/12/11 01:03:37;;;;;;;11.00;5.97;;;-0.50;99.90;;;;;;5093188;28;20134;-85
2022/12/11 01:06:03;;;;;;;13.05;5.63;;;-0.40;99.90;;;;;;5093240;28;20539;-86
2022/12/11 01:08:29;;;;;;;16.55;5.38;;;-0.40;99.90;;;;;;5093114;28;20504;-86
2022/12/11 01:11:03;;;;;;;18.67;6.25;;;-0.40;99.90;;;;;;5093444;28;20043;-86
2022/12/11 01:13:29;;;;;;;20.02;6.57;;;-0.40;99.90;;;;;;5076317;28;20036;-86
2022/12/11 01:15:55;;;;;;;18.58;6.18;;;-0.40;99.90;;;;;;5093310;28;20047;-86
2022/12/11 01:18:21;;;;;;;15.88;5.38;;;-0.30;99.90;;;;;;5093012;28;20403;-86
2022/12/11 01:20:46;;;;;;;16.02;5.15;;;-0.40;99.90;;;;;;5093344;28;20040;-86
2022/12/11 01:23:12;;;;;;;12.45;5.18;;;-0.30;99.90;;;;;;5092844;28;20127;-86
2022/12/11 01:25:39;;;;;;;13.75;5.93;;;-0.40;99.90;;;;;;5092838;28;20135;-86
2022/12/11 01:28:05;;;;;;;14.70;6.53;;;-0.30;99.90;;;;;;5092837;28;20043;-86
2022/12/11 01:30:30;;;;;;;8.68;4.35;;;-0.40;99.90;;;;;;5092742;28;20042;-86
2022/12/11 01:32:56;;;;;;;16.67;5.68;;;-0.30;99.90;;;;;;5092716;28;20071;-86
2022/12/11 01:35:22;;;;;;;16.77;5.72;;;-0.30;99.90;;;;;;5092953;28;20501;-86
2022/12/11 01:37:48;;;;;;;15.93;6.63;;;-0.30;99.90;;;;;;5092728;28;20077;-86
2022/12/11 01:40:16;;;;;;;13.95;6.20;;;-0.30;99.90;;;;;;5092592;28;20043;-86
2022/12/11 01:42:42;;;;;;;13.98;6.32;;;-0.30;99.90;;;;;;5092777;28;20398;-86
2022/12/11 01:45:24;;;;;;;13.30;5.68;;;-0.20;99.90;;;;;;5092561;28;20071;-86
2022/12/11 01:48:13;;;;;;;17.70;6.50;;;0.10;99.90;;;;;;5092504;28;20128;-86
2022/12/11 01:50:43;;;;;;;18.30;5.25;;;-0.20;99.90;;;;;;5092401;28;20043;-87
2022/12/11 01:53:13;;;;;;;14.15;5.35;;;-0.20;99.90;;;;;;5075801;28;20040;-86
2022/12/11 01:55:40;;;;;;;11.23;5.20;;;-0.20;99.90;;;;;;5092599;28;20122;-86
2022/12/11 01:58:06;;;;;;;14.38;5.53;;;0.20;99.90;;;;;;5092538;28;20122;-86
2022/12/11 02:00:32;;;;;;;11.98;5.43;;;-0.20;99.90;;;;;;5092559;28;20047;-86
2022/12/11 02:02:57;;;;;;;20.90;5.63;;;-0.20;99.90;;;;;;5092630;28;20403;-86
2022/12/11 02:05:23;;;;;;;17.05;6.78;;;-0.20;99.90;;;;;;5092625;28;20081;-87
2022/12/11 02:07:53;;;;;;;13.10;5.13;;;-0.20;99.90;;;;;;5092722;28;20044;-86
2022/12/11 02:10:20;;;;;;;13.93;5.35;;;-0.20;99.90;;;;;;5092635;28;20430;-86
2022/12/11 02:13:10;;;;;;;12.90;5.63;;;-0.20;99.90;;;;;;5092356;28;20040;-86
2022/12/11 02:15:48;;;;;;;12.15;4.10;;;-0.20;99.90;;;;;;5092261;28;20050;-86
2022/12/11 02:18:18;;;;;;;18.20;5.82;;;-0.10;99.90;;;;;;5091407;28;20048;-86
2022/12/11 02:20:52;;;;;;;17.45;6.30;;;-0.10;99.90;;;;;;5092142;28;20043;-86
2022/12/11 02:23:17;;;;;;;15.77;5.65;;;-0.10;99.90;;;;;;5092220;28;20040;-85
2022/12/11 02:25:51;;;;;;;11.30;5.05;;;-0.10;99.90;;;;;;5092136;28;20040;-87
2022/12/11 02:28:47;;;;;;;11.85;5.10;;;-0.10;99.90;;;;;;5092169;28;20083;-86
2022/12/11 02:31:27;;;;;;;14.70;5.82;;;-0.10;99.90;;;;;;5092856;28;20040;-87
2022/12/11 02:34:01;;;;;;;15.85;5.32;;;-0.10;99.90;;;;;;5092597;28;20474;-86
2022/12/11 02:36:32;;;;;;;16.63;6.28;;;-0.10;99.90;;;;;;5092349;28;20448;-86
2022/12/11 02:38:59;;;;;;;14.93;5.38;;;0.00;99.90;;;;;;5092218;28;20047;-87
2022/12/11 02:41:27;;;;;;;21.13;7.03;;;0.00;99.90;;;;;;5092042;28;20044;-86
2022/12/11 02:43:55;;;;;;;17.65;7.78;;;0.00;99.90;;;;;;5092566;28;20062;-86
2022/12/11 02:46:21;;;;;;;21.60;5.80;;;0.00;99.90;;;;;;5075615;28;20601;-86
2022/12/11 02:48:49;;;;;;;10.77;5.25;;;0.00;99.90;;;;;;5092431;28;20415;-87
2022/12/11 02:51:20;;;;;;;16.08;5.78;;;0.00;99.90;;;;;;5093073;28;20085;-86
2022/12/11 02:53:47;;;;;;;8.20;5.03;;;0.00;99.90;;;;;;5093231;28;20048;-86
2022/12/11 02:56:19;;;;;;;17.58;6.50;;;0.00;99.90;;;;;;5092925;28;20085;-86
2022/12/11 02:58:49;;;;;;;12.68;5.30;;;0.00;99.90;;;;;;5092720;28;20090;-86
2022/12/11 03:01:15;;;;;;;14.82;5.70;;;0.00;99.90;;;;;;5076516;28;20083;-86
2022/12/11 03:03:40;;;;;;;19.52;6.32;;;0.00;99.90;;;;;;5093000;28;20051;-86
2022/12/11 03:06:10;;;;;;;12.25;4.85;;;0.00;99.90;;;;;;5093139;28;20044;-86
2022/12/11 03:08:36;;;;;;;15.73;5.53;;;0.00;99.90;;;;;;5094837;28;20040;-86
2022/12/11 03:11:01;;;;;;;17.35;5.18;;;0.10;99.90;;;;;;5079473;28;20089;-85
2022/12/11 03:13:27;;;;;;;17.30;6.20;;;0.10;99.90;;;;;;5096434;28;20098;-86
2022/12/11 03:16:28;;;;;;;17.75;7.00;;;0.10;99.90;;;;;;5096150;28;20117;-85
2022/12/11 03:19:03;;;;;;;14.40;6.25;;;0.10;99.90;;;;;;5097121;28;20490;-86
2022/12/11 03:21:37;;;;;;;13.00;5.45;;;0.10;99.90;;;;;;5096973;28;20044;-85
2022/12/11 03:24:10;;;;;;;14.48;6.40;;;0.10;99.90;;;;;;5097590;28;20048;-86
2022/12/11 03:26:43;;;;;;;17.25;6.88;;;0.10;99.90;;;;;;5097832;28;20060;-86
2022/12/11 03:29:18;;;;;;;20.40;6.63;;;0.10;99.90;;;;;;5097679;28;20142;-85
2022/12/11 03:32:03;;;;;;;19.55;5.72;;;0.10;99.90;;;;;;5102227;28;20072;-86
2022/12/11 03:35:08;;;;;;;16.25;5.55;;;0.10;99.90;;;;;;5103258;28;20039;-86
2022/12/11 03:37:38;;;;;;;19.80;5.97;;;0.10;99.90;;;;;;5047184;28;20043;-85
2022/12/11 03:40:10;;;;;;;14.32;5.57;;;0.10;99.90;;;;;;5092481;28;20048;-86
2022/12/11 03:42:38;;;;;;;15.40;5.95;;;0.10;99.90;;;;;;5099996;28;20036;-85
2022/12/11 03:45:05;;;;;;;14.48;5.35;;;0.20;99.90;;;;;;5083682;28;20070;-85
2022/12/11 03:47:32;;;;;;;20.35;6.82;;;0.10;99.90;;;;;;5100290;28;20039;-86
2022/12/11 03:50:00;;;;;;;18.05;5.82;;;0.10;99.90;;;;;;5100948;28;20521;-86
2022/12/11 03:52:28;;;;;;;13.43;6.50;;;0.10;99.90;;;;;;5098468;28;20048;-85
2022/12/11 03:54:58;;;;;;;22.75;6.80;;;0.10;99.90;;;;;;5098125;28;20044;-86
2022/12/11 03:57:30;;;;;;;17.63;6.47;;;0.10;99.90;;;;;;5097954;28;20118;-86
2022/12/11 03:59:56;;;;;;;13.75;5.40;;;0.20;99.90;;;;;;5098200;28;20479;-86
2022/12/11 04:02:22;;;;;;;17.90;7.00;;;0.10;99.90;;;;;;5080645;28;20178;-86
2022/12/11 04:04:47;;;;;;;14.73;5.38;;;0.10;99.90;;;;;;5097261;28;20082;-86
2022/12/11 04:07:13;;;;;;;12.73;5.45;;;0.20;99.90;;;;;;5097018;28;20046;-86
2022/12/11 04:09:39;;;;;;;16.50;6.13;;;0.10;99.90;;;;;;5097015;28;20040;-86
2022/12/11 04:12:04;;;;;;;13.45;5.53;;;0.10;99.90;;;;;;5097075;28;20029;-86
2022/12/11 04:24:13;;;;;;;20.73;6.35;;;0.20;99.90;;;;;;5113929;28;20040;-86
2022/12/11 04:25:29;;;;;;;18.30;6.07;;;0.20;99.90;;;;;;5113301;28;20126;-86
2022/12/11 04:27:54;;;;;;;16.58;5.55;;;0.20;99.90;;;;;;5096159;28;20100;-86
2022/12/11 04:30:23;;;;;;;12.73;5.65;;;0.20;99.90;;;;;;5095506;28;20042;-86
2022/12/11 04:32:49;;;;;;;14.57;6.25;;;0.20;99.90;;;;;;5094265;28;20123;-86
2022/12/11 04:35:16;;;;;;;13.45;5.45;;;0.20;99.90;;;;;;5094139;28;20119;-86
2022/12/11 04:37:41;;;;;;;22.15;6.53;;;0.20;99.90;;;;;;5094278;28;20036;-86
2022/12/11 04:40:11;;;;;;;14.30;5.50;;;0.20;99.90;;;;;;5093762;28;20032;-86
2022/12/11 04:42:36;;;;;;;17.95;7.38;;;0.20;99.90;;;;;;5093075;28;20079;-86
2022/12/11 04:45:03;;;;;;;14.45;6.32;;;0.20;99.90;;;;;;5093801;28;20068;-86
2022/12/11 04:47:29;;;;;;;17.83;6.85;;;0.20;99.90;;;;;;5076730;28;20046;-86
2022/12/11 04:49:55;;;;;;;16.75;6.57;;;0.20;99.90;;;;;;5093504;28;20406;-86
2022/12/11 04:52:20;;;;;;;20.42;6.80;;;0.20;99.90;;;;;;5093687;28;20487;-86
2022/12/11 04:54:46;;;;;;;20.80;7.47;;;0.30;99.90;;;;;;5076455;28;20083;-86
2022/12/11 04:57:12;;;;;;;18.08;6.40;;;0.20;99.90;;;;;;5093250;28;20156;-86
2022/12/11 04:59:37;;;;;;;24.63;6.13;;;0.20;99.90;;;;;;5093179;28;20172;-86
2022/12/11 05:02:03;;;;;;;16.00;7.38;;;0.20;99.90;;;;;;5092984;28;20040;-86
2022/12/11 05:04:33;;;;;;;13.80;7.32;;;0.20;99.90;;;;;;5093089;28;20510;-86
2022/12/11 05:07:00;;;;;;;22.88;7.85;;;0.20;99.90;;;;;;5076444;28;20040;-86
2022/12/11 05:09:26;;;;;;;16.88;6.03;;;0.20;99.90;;;;;;5093068;28;20123;-86
2022/12/11 05:11:51;;;;;;;20.65;7.07;;;0.20;99.90;;;;;;5093012;28;20128;-86
2022/12/11 05:14:17;;;;;;;17.58;6.53;;;0.20;99.90;;;;;;5092963;28;20068;-86
2022/12/11 05:16:43;;;;;;;11.85;6.10;;;0.20;99.90;;;;;;5093519;28;20127;-86
2022/12/11 05:19:08;;;;;;;18.50;7.47;;;0.20;99.90;;;;;;5076326;28;20146;-86
2022/12/11 05:21:34;;;;;;;20.67;7.30;;;0.20;99.90;;;;;;5092900;28;20044;-86
2022/12/11 05:23:59;;;;;;;17.08;6.35;;;0.30;99.90;;;;;;5092799;28;20040;-86
2022/12/11 05:26:25;;;;;;;18.25;7.00;;;0.30;99.90;;;;;;5093017;28;20067;-86
2022/12/11 05:28:53;;;;;;;15.35;4.70;;;0.20;99.90;;;;;;5092783;28;20085;-86
2022/12/11 05:31:20;;;;;;;22.80;6.38;;;0.20;99.90;;;;;;5109530;28;20071;-86
2022/12/11 05:33:49;;;;;;;21.38;6.07;;;0.20;99.90;;;;;;5092746;28;20032;-87
2022/12/11 05:36:21;;;;;;;12.60;5.40;;;0.30;99.90;;;;;;5092647;28;20040;-86
2022/12/11 05:38:47;;;;;;;19.73;6.88;;;0.30;99.90;;;;;;5092690;28;20090;-86
2022/12/11 05:41:16;;;;;;;16.38;6.45;;;0.30;99.90;;;;;;5092933;28;20051;-86
2022/12/11 05:43:42;;;;;;;22.25;6.57;;;0.30;99.90;;;;;;5092596;28;20480;-86
2022/12/11 05:46:13;;;;;;;20.48;6.32;;;0.30;99.90;;;;;;5075520;28;20036;-86
2022/12/11 05:48:40;;;;;;;15.52;6.25;;;0.30;99.90;;;;;;5075563;28;20043;-86
2022/12/11 05:51:07;;;;;;;14.15;6.25;;;0.30;99.90;;;;;;5092641;28;20230;-86
2022/12/11 05:53:34;;;;;;;15.45;6.97;;;0.30;99.90;;;;;;5092538;28;20047;-86
2022/12/11 05:56:09;;;;;;;15.95;6.53;;;0.30;99.90;;;;;;5092368;28;20421;-86
2022/12/11 05:58:35;;;;;;;18.45;6.45;;;0.40;99.90;;;;;;5092623;28;20044;-86
2022/12/11 06:01:05;;;;;;;14.32;6.30;;;0.30;99.90;;;;;;5092271;28;20036;-86
2022/12/11 06:03:31;;;;;;;13.77;6.00;;;0.40;99.90;;;;;;5092093;28;20384;-86
2022/12/11 06:05:59;;;;;;;14.77;6.72;;;0.40;99.90;;;;;;5092098;28;20074;-86
2022/12/11 06:08:25;;;;;;;16.17;5.55;;;0.40;99.90;;;;;;5092305;28;20044;-86
2022/12/11 06:10:51;;;;;;;18.65;6.90;;;0.40;99.90;;;;;;5092442;28;20085;-86
2022/12/11 06:13:17;;;;;;;15.52;6.57;;;0.40;99.90;;;;;;5092089;28;20123;-85
2022/12/11 06:15:42;;;;;;;18.80;7.88;;;0.40;99.90;;;;;;5092339;28;20042;-86
2022/12/11 06:18:08;;;;;;;22.25;6.15;;;0.40;99.90;;;;;;5092211;28;20482;-86
2022/12/11 06:20:34;;;;;;;13.45;5.85;;;0.40;99.90;;;;;;5092280;28;20062;-86
2022/12/11 06:23:00;;;;;;;11.55;5.22;;;0.40;99.90;;;;;;5091891;28;20040;-86
2022/12/11 06:25:27;;;;;;;19.55;6.00;;;0.50;99.90;;;;;;5075182;28;20048;-86
2022/12/11 06:27:53;;;;;;;19.35;6.53;;;0.40;99.90;;;;;;5092069;28;20119;-86
2022/12/11 06:30:19;;;;;;;16.38;7.20;;;0.40;99.90;;;;;;5091854;28;20375;-86
2022/12/11 06:32:45;;;;;;;21.35;6.35;;;0.40;99.90;;;;;;5091978;28;20128;-86
2022/12/11 06:35:10;;;;;;;14.90;6.50;;;0.40;99.90;;;;;;5092095;28;20036;-86
2022/12/11 06:37:37;;;;;;;22.35;6.55;;;0.40;99.90;;;;;;5092115;28;20040;-85
2022/12/11 06:40:04;;;;;;;16.45;6.55;;;0.40;99.90;;;;;;5091818;28;20036;-85
2022/12/11 06:42:30;;;;;;;19.90;6.20;;;0.40;99.90;;;;;;5092065;28;20098;-86
2022/12/11 06:44:58;;;;;;;18.25;6.85;;;0.40;99.90;;;;;;5091873;28;20048;-85
2022/12/11 06:47:28;;;;;;;18.25;6.95;;;0.40;99.90;;;;;;5091913;28;20040;-86
2022/12/11 06:49:54;;;;;;;16.60;6.13;;;0.40;99.90;;;;;;5091869;28;20044;-86
2022/12/11 06:52:20;;;;;;;18.27;5.88;;;0.40;99.90;;;;;;5091835;28;20114;-86
2022/12/11 06:54:46;;;;;;;18.08;5.88;;;0.40;99.90;;;;;;5091771;28;20039;-86
2022/12/11 06:57:11;;;;;;;13.20;5.18;;;0.40;99.90;;;;;;5091775;28;20449;-85
2022/12/11 06:59:37;;;;;;;15.32;5.80;;;0.50;99.90;;;;;;5091873;28;20451;-86
2022/12/11 07:02:03;;;;;;;14.32;4.78;;;1.20;99.90;;;;;;5091711;28;20123;-86
2022/12/11 07:04:29;;;;;;;18.75;5.82;;;0.40;99.90;;;;;;5092227;28;20453;-86
2022/12/11 07:06:55;;;;;;;11.05;4.65;;;0.40;99.90;;;;;;5095714;28;20388;-86
2022/12/11 07:09:21;;;;;;;15.20;5.28;;;0.40;99.90;;;;;;5095669;28;20491;-86
2022/12/11 07:11:51;;;;;;;16.90;5.57;;;0.40;99.90;;;;;;5095681;28;20043;-86
2022/12/11 07:14:17;;;;;;;13.18;5.35;;;0.40;99.90;;;;;;5096086;28;20425;-86
2022/12/11 07:16:43;;;;;;;15.73;5.88;;;0.40;99.90;;;;;;5095935;28;20072;-86
2022/12/11 07:19:08;;;;;;;12.63;5.18;;;0.40;99.90;;;;;;5095796;28;20133;-86
2022/12/11 07:21:34;;;;;;;16.48;5.35;;;0.40;99.90;;;;;;5096027;28;20040;-87
2022/12/11 07:23:59;;;;;;;13.52;5.97;;;0.40;99.90;;;;;;5095834;28;20051;-86
2022/12/11 07:26:28;;;;;;;14.43;5.10;;;0.40;99.90;;;;;;5095765;28;20455;-80
2022/12/11 07:28:57;;;;;;;12.02;5.28;;;0.40;99.90;;;;;;5095201;28;20136;-84
2022/12/11 07:31:24;;;;;;;11.75;5.47;;;0.60;99.90;;;;;;5095190;28;20457;-83
2022/12/11 07:33:58;;;;;;;17.88;5.75;;;0.40;99.90;;;;;;5095514;28;20043;-85
2022/12/11 07:36:25;;;;;;;18.48;5.65;;;0.40;99.90;;;;;;5094826;28;20047;-85
2022/12/11 07:38:51;;;;;;;14.95;5.72;;;0.40;99.90;;;;;;5094656;28;20399;-86
2022/12/11 07:41:16;;;;;;;12.70;5.45;;;0.40;99.90;;;;;;5094605;28;20051;-85
2022/12/11 07:43:43;;;;;;;17.83;4.95;;;0.40;99.90;;;;;;5094269;28;20517;-87
2022/12/11 07:46:17;;;;;;;13.55;5.63;;;0.40;99.90;;;;;;5094359;28;20102;-84
2022/12/11 07:48:45;;;;;;;15.98;5.97;;;0.40;99.90;;;;;;5094592;28;20047;-85
2022/12/11 07:51:37;;;;;;;11.63;4.93;;;0.40;99.90;;;;;;5094762;28;20089;-86
2022/12/11 07:54:06;;;;;;;10.60;4.47;;;0.40;99.90;;;;;;5092458;28;20474;-85
2022/12/11 07:56:34;;;;;;;10.57;4.55;;;0.40;99.90;;;;;;5095121;28;20044;-85
2022/12/11 07:59:01;;;;;;;16.17;5.65;;;0.40;99.90;;;;;;5094174;28;20082;-85
2022/12/11 08:01:28;;;;;;;16.42;6.20;;;0.40;99.90;;;;;;5094322;28;20075;-85
2022/12/11 08:03:55;;;;;;;15.02;5.60;;;0.40;99.90;;;;;;5094157;28;20400;-85
2022/12/11 08:06:26;;;;;;;17.50;6.45;;;0.40;99.90;;;;;;5094458;28;20040;-85
2022/12/11 08:08:52;;;;;;;;;;;0.40;99.90;;;;;;5094521;28;20123;-85
2022/12/11 08:11:18;;;;;;;13.77;5.15;;;0.30;99.90;;;;;;5111298;28;19920;-85
2022/12/11 08:13:44;;;;;;;15.40;6.03;;;0.40;99.90;;;;;;5094921;28;20039;-85
2022/12/11 08:16:12;;;;;;;22.23;5.78;;;0.40;99.90;;;;;;5094624;28;20043;-84
2022/12/11 08:18:38;;;;;;;19.48;6.22;;;0.40;99.90;;;;;;5093785;28;20052;-84
2022/12/11 08:21:16;;;;;;;12.57;5.03;;;0.40;99.90;;;;;;5076908;28;20063;-84
2022/12/11 08:23:42;;;;;;;17.80;5.75;;;0.40;99.90;;;;;;5093886;28;20044;-85
2022/12/11 08:26:11;;;;;;;16.25;5.28;;;0.40;99.90;;;;;;5094036;28;20032;-85
2022/12/11 08:28:37;;;;;;;18.83;5.57;;;0.40;99.90;;;;;;5094503;28;20616;-86
2022/12/11 08:31:05;;;;;;;19.13;5.88;;;0.40;99.90;;;;;;5093722;28;20067;-86
2022/12/11 08:33:31;;;;;;;15.90;5.90;;;0.40;99.90;;;;;;5094246;28;20118;-85
2022/12/11 08:35:57;;;;;;;13.63;5.70;;;0.40;99.90;;;;;;5093471;28;20079;-85
2022/12/11 08:38:23;;;;;;;16.13;5.93;;;0.40;99.90;;;;;;5093972;28;20036;-85
2022/12/11 08:40:48;;;;;;;16.98;7.53;;;0.40;99.90;;;;;;5094552;28;20100;-85
2022/12/11 08:43:14;;;;;;;17.85;6.22;;;0.40;99.90;;;;;;5094475;28;20071;-86
2022/12/11 08:45:39;;;;;;;17.88;6.93;;;0.40;99.90;;;;;;5094605;28;20123;-85
2022/12/11 08:48:05;;;;;;;13.15;6.13;;;0.50;99.90;;;;;;5094203;28;20036;-83
2022/12/11 08:50:31;;;;;;;17.25;6.75;;;0.50;99.90;;;;;;5093674;28;20057;-85
2022/12/11 08:52:56;;;;;;;12.60;5.72;;;0.50;99.90;;;;;;5093873;28;20048;-85
2022/12/11 08:55:22;;;;;;;14.02;5.57;;;0.50;99.90;;;;;;5094279;28;20036;-84
2022/12/11 08:57:48;;;;;;;17.17;6.35;;;0.50;99.90;;;;;;5093733;28;20057;-84
2022/12/11 09:00:14;;;;;;;17.30;6.65;;;0.50;99.90;;;;;;5093340;28;20048;-84
2022/12/11 09:02:40;;;;;;;19.75;5.35;;;0.50;99.90;;;;;;5093212;28;20628;-81
2022/12/11 09:05:08;;;;;;;15.15;5.65;;;0.50;99.90;;;;;;5093095;28;20126;-81
2022/12/11 09:07:35;;;;;;;18.15;6.70;;;0.50;99.90;;;;;;5093585;28;20044;-81
2022/12/11 09:10:00;;;;;;;18.80;6.25;;;0.50;99.90;;;;;;5092873;28;20071;-84
2022/12/11 09:12:27;;;;;;;12.43;5.07;;;0.50;99.90;;;;;;5092520;28;20032;-82
2022/12/11 09:14:53;;;;;;;22.85;7.07;;;0.50;99.90;;;;;;5092446;28;20119;-79
2022/12/11 09:17:19;;;;;;;17.13;6.75;;;0.50;99.90;;;;;;5092304;28;20118;-79
2022/12/11 09:19:44;;;;;;;20.88;6.88;;;0.50;99.90;;;;;;5092556;28;20063;-79
2022/12/11 09:22:11;;;;;;;11.82;5.50;;;0.50;99.90;;;;;;5092367;28;20154;-79
2022/12/11 09:24:37;;;;;;;25.20;6.90;;;0.50;99.90;;;;;;5092530;28;20046;-79
2022/12/11 09:27:04;;;;;;;17.38;5.93;;;0.50;99.90;;;;;;5091958;28;20040;-79
2022/12/11 09:29:29;;;;;;;22.02;6.57;;;0.60;99.90;;;;;;5091874;28;20083;-79
2022/12/11 09:31:55;;;;;;;15.77;5.60;;;0.60;99.90;;;;;;5092379;28;20075;-79
2022/12/11 09:34:21;;;;;;;13.35;5.97;;;0.60;99.90;;;;;;5091948;28;20036;-79
2022/12/11 09:36:46;;;;;;;15.13;5.95;;;0.60;99.90;;;;;;5092111;28;20044;-79
2022/12/11 09:39:14;;;;;;;12.30;5.47;;;0.60;99.90;;;;;;5092478;28;20095;-79
2022/12/11 09:42:13;;;;;;;18.52;6.63;;;0.60;99.90;;;;;;5091933;28;20085;-79
2022/12/11 09:44:54;;;;;;;20.63;7.20;;;0.60;99.90;;;;;;5091897;28;20058;-79
2022/12/11 09:47:22;;;;;;;;;;;0.60;99.90;;;;;;5092403;28;20043;-79
2022/12/11 09:49:55;;;;;;;12.15;4.85;;;0.60;99.90;;;;;;5091840;28;19977;-79
2022/12/11 09:53:00;;;;;;;17.55;6.60;;;0.60;99.90;;;;;;5092046;28;20040;-79
2022/12/11 09:55:34;;;;;;;20.10;6.80;;;0.70;99.90;;;;;;5091779;28;20040;-79
2022/12/11 09:58:10;;;;;;;14.48;6.18;;;0.70;99.90;;;;;;5091756;28;20040;-79
2022/12/11 10:01:00;;;;;;;13.75;5.47;;;0.70;99.90;;;;;;5091724;28;20723;-79
2022/12/11 10:03:51;;;;;;;22.63;6.80;;;0.70;99.90;;;;;;5091596;28;20431;-80
2022/12/11 10:06:40;;;;;;;17.80;6.57;;;0.70;99.90;;;;;;5091857;28;20035;-80
2022/12/11 10:09:17;;;;;;;21.80;6.82;;;0.70;99.90;;;;;;5091409;28;20040;-79
2022/12/11 10:11:55;;;;;;;18.02;7.05;;;0.70;99.90;;;;;;5091391;28;20139;-79
2022/12/11 10:14:42;;;;;;;20.65;6.05;;;0.80;99.90;;;;;;5091597;28;20072;-80
2022/12/11 10:17:19;;;;;;;14.23;5.60;;;0.70;99.90;;;;;;5091250;28;20036;-80
2022/12/11 10:19:45;;;;;;;19.58;6.60;;;0.80;99.90;;;;;;5091357;28;20482;-80
2022/12/11 10:22:19;;;;;;;17.52;7.55;;;0.80;99.90;;;;;;5091540;28;20123;-80
2022/12/11 10:25:20;;;;;;;16.60;6.28;;;0.80;99.90;;;;;;5091686;28;20487;-79
2022/12/11 10:27:45;;;;;;;19.35;7.13;;;0.80;99.90;;;;;;5072315;28;20048;-80
2022/12/11 10:30:20;;;;;;;14.43;6.40;;;0.80;99.90;;;;;;5091087;28;20040;-79
2022/12/11 10:32:56;;;;;;;21.33;7.68;;;0.80;99.90;;;;;;5091107;28;20036;-80
2022/12/11 10:35:46;;;;;;;9.98;5.85;;;0.80;99.90;;;;;;5091317;28;20036;-79
2022/12/11 10:38:34;;;;;;;18.55;6.57;;;0.80;99.90;;;;;;5091080;28;20086;-79
2022/12/11 10:41:16;;;;;;;13.98;6.00;;;1.30;99.90;;;;;;5094167;28;20064;-79
2022/12/11 10:43:45;;;;;;;17.08;8.05;;;0.80;99.90;;;;;;5095759;28;20036;-79
2022/12/11 10:46:18;;;;;;;19.63;6.50;;;0.80;99.90;;;;;;5095585;28;20058;-79
2022/12/11 10:48:54;;;;;;;20.13;7.20;;;0.80;99.90;;;;;;5095445;28;20391;-79
2022/12/11 10:51:34;;;;;;;22.85;7.55;;;0.80;99.90;;;;;;5095922;28;20035;-80
2022/12/11 10:54:08;;;;;;;22.55;7.65;;;0.80;99.90;;;;;;5095209;28;20036;-79
2022/12/11 10:56:36;;;;;;;19.45;7.85;;;0.80;99.90;;;;;;5095140;28;20044;-80
2022/12/11 10:59:02;;;;;;;20.33;7.57;;;0.80;99.90;;;;;;5095143;28;20040;-79
2022/12/11 11:01:30;;;;;;;14.65;6.35;;;0.80;99.90;;;;;;5095252;28;20040;-79
2022/12/11 11:04:14;;;;;;;18.38;6.85;;;0.80;99.90;;;;;;5094720;28;20056;-79
2022/12/11 11:06:40;;;;;;;15.52;6.57;;;0.80;99.90;;;;;;5094942;28;20062;-79
2022/12/11 11:09:28;;;;;;;14.07;6.35;;;0.90;99.90;;;;;;5094684;28;20044;-79
2022/12/11 11:11:53;;;;;;;15.82;6.72;;;0.90;99.90;;;;;;5094802;28;20047;-79
2022/12/11 11:14:21;;;;;;;22.25;6.95;;;0.90;99.90;;;;;;5094779;28;20032;-79
2022/12/11 11:16:50;;;;;;;13.65;5.90;;;0.90;99.90;;;;;;5094722;28;20101;-80
2022/12/11 11:19:27;;;;;;;19.23;7.82;;;0.80;99.90;;;;;;5094805;28;20398;-79
2022/12/11 11:21:56;;;;;;;14.25;6.13;;;0.90;99.90;;;;;;5094552;28;20050;-79
2022/12/11 11:24:50;;;;;;;14.68;6.60;;;0.90;99.90;;;;;;5094449;28;20399;-80
2022/12/11 11:27:31;;;;;;;15.10;6.13;;;0.90;99.90;;;;;;5095057;28;20139;-80
2022/12/11 11:30:00;;;;;;;19.13;5.87;;;0.90;99.90;;;;;;5094581;28;20058;-80
2022/12/11 11:32:33;;;;;;;22.48;7.60;;;0.90;99.90;;;;;;5094774;28;20560;-80
2022/12/11 11:35:11;;;;;;;13.45;5.53;;;0.90;99.90;;;;;;5094398;28;20048;-80
2022/12/11 11:37:38;;;;;;;17.98;6.38;;;0.90;99.90;;;;;;5094357;28;20044;-80
2022/12/11 11:40:12;;;;;;;22.42;7.63;;;0.90;99.90;;;;;;5094357;28;20093;-80
2022/12/11 11:42:42;;;;;;;15.00;6.85;;;0.90;99.90;;;;;;5094303;28;20407;-79
2022/12/11 11:45:30;;;;;;;26.80;7.97;;;0.90;99.90;;;;;;5094306;28;20050;-79
2022/12/11 11:48:29;;;;;;;20.70;6.57;;;0.90;99.90;;;;;;5094050;28;20032;-80
2022/12/11 11:50:56;;;;;;;16.40;6.65;;;0.90;99.90;;;;;;5093799;28;20055;-80
2022/12/11 11:53:30;;;;;;;23.17;7.93;;;0.90;99.90;;;;;;5094054;28;20052;-80
2022/12/11 11:56:20;;;;;;;19.23;7.22;;;1.00;99.90;;;;;;5093898;28;20092;-80
2022/12/11 11:58:59;;;;;;;22.08;7.43;;;1.00;99.90;;;;;;5094238;28;20047;-79
2022/12/11 12:01:25;;;;;;;18.38;6.15;;;0.90;99.90;;;;;;5093920;28;20036;-80
2022/12/11 12:03:51;;;;;;;27.23;7.22;;;0.90;99.90;;;;;;5093807;28;20062;-80
2022/12/11 12:06:26;;;;;;;14.95;6.20;;;1.00;99.90;;;;;;5093764;28;20058;-80
2022/12/11 12:08:51;;;;;;;17.70;7.40;;;1.00;99.90;;;;;;5093650;28;20411;-79
2022/12/11 12:11:39;;;;;;;21.67;7.90;;;0.90;99.90;;;;;;5093917;28;20044;-80
2022/12/11 12:14:30;;;;;;;20.95;7.22;;;0.90;99.90;;;;;;5093651;28;20118;-80
2022/12/11 12:16:56;;;;;;;;;;;0.90;99.90;;;;;;5093955;28;20523;-80
2022/12/11 12:19:53;;;;;;;17.88;7.10;;;0.90;99.90;;;;;;5076687;28;19923;-80
2022/12/11 12:22:38;;;;;;;20.50;7.45;;;0.90;99.90;;;;;;5093514;28;20044;-79
2022/12/11 12:25:34;;;;;;;12.43;6.13;;;0.90;99.90;;;;;;5093829;28;20044;-80
2022/12/11 12:28:21;;;;;;;17.15;7.32;;;0.90;99.90;;;;;;5093297;28;20040;-80
2022/12/11 12:31:41;;;;;;;15.60;6.10;;;0.90;99.90;;;;;;5093294;28;20058;-79
2022/12/11 12:34:25;;;;;;;16.83;7.65;;;0.90;99.90;;;;;;5038397;28;20148;-80
2022/12/11 12:37:20;;;;;;;24.17;7.35;;;1.60;99.90;;;;;;5090112;28;20509;-80
2022/12/11 12:40:03;;;;;;;15.93;6.65;;;0.90;99.90;;;;;;5093309;28;20043;-80
2022/12/11 12:42:40;;;;;;;20.60;6.30;;;0.90;99.90;;;;;;5093454;28;20547;-80
2022/12/11 12:45:15;;;;;;;19.52;7.70;;;0.90;99.90;;;;;;5093029;28;20058;-80
2022/12/11 12:47:46;;;;;;;18.55;7.07;;;0.90;99.90;;;;;;5093287;28;20506;-80
2022/12/11 12:50:22;;;;;;;15.48;6.88;;;0.90;99.90;;;;;;5092868;28;20051;-80
2022/12/11 12:52:51;;;;;;;18.63;8.23;;;0.90;99.90;;;;;;5093034;28;20140;-80
2022/12/11 12:55:24;;;;;;;13.10;5.97;;;0.90;99.90;;;;;;5092709;28;20057;-80
2022/12/11 12:57:51;;;;;;;16.75;6.68;;;0.90;99.90;;;;;;5092740;28;20425;-80
2022/12/11 13:00:39;;;;;;;24.73;7.20;;;0.90;99.90;;;;;;5092795;28;20051;-79
2022/12/11 13:03:21;;;;;;;16.25;6.53;;;1.00;99.90;;;;;;5091644;28;20052;-78
2022/12/11 13:05:58;;;;;;;16.27;6.70;;;1.00;99.90;;;;;;5092659;28;20043;-83
2022/12/11 13:08:28;;;;;;;17.58;7.07;;;1.40;99.90;;;;;;5092808;28;20040;-83
2022/12/11 13:11:06;;;;;;;19.65;7.03;;;1.00;99.90;;;;;;5092518;28;20433;-80